Time;durP1;ratioP1;P1;durP2;ratioP2;P2;SDS_P1;SDS_P2;PMS_P1;PMS_P2;Temp;Humidity;BMP_temperature;BMP_pressure;BME280_temperature;BME280_humidity;BME280_pressure;Samples;Min_cycle;Max_cycle;Signal;HPM_P1;HPM_P2
2021/09/25 00:00:10;;;;;;;15.00;7.90;;;22.50;99.90;;;;;;5052925;28;20037;-76
2021/09/25 00:02:38;;;;;;;11.93;7.73;;;22.40;99.90;;;;;;5053837;28;20052;-84
2021/09/25 00:05:07;;;;;;;12.48;7.28;;;22.40;99.90;;;;;;5052728;28;20315;-87
2021/09/25 00:07:36;;;;;;;10.15;7.43;;;22.40;99.90;;;;;;5053560;28;20049;-76
2021/09/25 00:10:05;;;;;;;14.57;8.43;;;22.30;99.90;;;;;;5051687;28;20068;-76
2021/09/25 00:12:32;;;;;;;12.60;8.75;;;22.30;99.90;;;;;;5052712;28;20053;-76
2021/09/25 00:14:59;;;;;;;13.90;7.88;;;22.30;99.90;;;;;;5054104;28;20431;-86
2021/09/25 00:17:27;;;;;;;10.75;8.68;;;22.30;99.90;;;;;;5053413;28;20049;-85
2021/09/25 00:19:54;;;;;;;19.13;9.32;;;22.30;99.90;;;;;;5036749;28;20045;-76
2021/09/25 00:22:21;;;;;;;13.48;9.15;;;22.30;99.90;;;;;;5036239;28;20063;-76
2021/09/25 00:24:52;;;;;;;16.63;8.90;;;22.30;99.90;;;;;;5053028;28;20045;-75
2021/09/25 00:27:19;;;;;;;15.63;8.98;;;22.20;99.90;;;;;;5052601;28;20462;-85
2021/09/25 00:29:47;;;;;;;14.45;8.68;;;22.20;99.90;;;;;;5053440;28;20047;-85
2021/09/25 00:32:14;;;;;;;14.65;9.02;;;22.20;99.90;;;;;;5052161;28;20500;-86
2021/09/25 00:34:42;;;;;;;13.55;9.40;;;22.20;99.90;;;;;;5053049;28;20436;-75
2021/09/25 00:37:13;;;;;;;16.73;9.10;;;22.20;99.90;;;;;;5053304;28;20033;-76
2021/09/25 00:39:41;;;;;;;13.35;8.82;;;22.20;99.90;;;;;;5052982;28;20091;-76
2021/09/25 00:42:09;;;;;;;17.38;9.45;;;22.20;99.90;;;;;;5053324;28;20384;-84
2021/09/25 00:44:37;;;;;;;18.05;8.80;;;22.20;99.90;;;;;;5053615;28;20412;-85
2021/09/25 00:47:08;;;;;;;16.95;9.05;;;22.20;99.90;;;;;;5034271;28;20543;-76
2021/09/25 00:49:37;;;;;;;18.40;9.02;;;22.20;99.90;;;;;;5031741;28;20435;-86
2021/09/25 00:52:05;;;;;;;18.80;9.38;;;22.10;99.90;;;;;;5033524;28;20034;-84
2021/09/25 00:54:35;;;;;;;13.35;8.73;;;22.10;99.90;;;;;;5015894;28;20135;-75
2021/09/25 00:57:04;;;;;;;12.73;9.07;;;22.10;99.90;;;;;;5031985;28;20142;-86
2021/09/25 00:59:57;;;;;;;15.68;9.35;;;22.00;99.90;;;;;;5031804;28;20053;-76
2021/09/25 01:02:24;;;;;;;10.00;8.52;;;22.00;99.90;;;;;;5015563;28;20049;-76
2021/09/25 01:04:56;;;;;;;17.77;9.35;;;22.00;99.90;;;;;;5033022;28;20045;-84
2021/09/25 01:07:23;;;;;;;12.32;9.52;;;21.90;99.90;;;;;;5031430;28;20041;-85
2021/09/25 01:09:54;;;;;;;16.77;8.63;;;22.00;99.90;;;;;;5031786;28;20207;-85
2021/09/25 01:12:22;;;;;;;15.68;9.52;;;22.00;99.90;;;;;;5032074;28;20446;-84
2021/09/25 01:14:49;;;;;;;17.55;9.98;;;21.90;99.90;;;;;;5032459;28;20044;-76
2021/09/25 01:17:17;;;;;;;13.55;9.05;;;21.90;99.90;;;;;;5032027;28;20154;-86
2021/09/25 01:19:44;;;;;;;14.75;8.35;;;21.90;99.90;;;;;;5032701;28;20063;-76
2021/09/25 01:22:12;;;;;;;12.40;9.02;;;21.90;99.90;;;;;;5014098;28;20580;-76
2021/09/25 01:24:44;;;;;;;18.75;10.30;;;21.90;99.90;;;;;;5026666;28;20121;-76
2021/09/25 01:27:12;;;;;;;15.48;9.57;;;21.90;99.90;;;;;;5020582;28;20505;-83
2021/09/25 01:29:41;;;;;;;19.08;10.10;;;21.90;99.90;;;;;;5032740;28;20469;-84
2021/09/25 01:32:09;;;;;;;13.93;9.00;;;21.80;99.90;;;;;;5032844;28;20054;-75
2021/09/25 01:34:36;;;;;;;19.02;10.45;;;21.90;99.90;;;;;;5031754;28;20076;-85
2021/09/25 01:37:06;;;;;;;12.88;9.05;;;21.90;99.90;;;;;;5014489;28;20119;-76
2021/09/25 01:39:33;;;;;;;12.30;9.18;;;21.80;99.90;;;;;;5030711;28;20080;-86
2021/09/25 01:42:01;;;;;;;17.02;9.85;;;21.80;99.90;;;;;;5032593;28;20041;-75
2021/09/25 01:44:32;;;;;;;13.63;9.95;;;21.80;99.90;;;;;;5031172;28;20053;-84
2021/09/25 01:47:00;;;;;;;15.80;10.10;;;21.80;99.90;;;;;;5032614;28;20052;-85
2021/09/25 01:49:47;;;;;;;12.55;9.20;;;21.80;99.90;;;;;;5031387;28;20053;-84
2021/09/25 01:52:16;;;;;;;12.57;8.85;;;21.80;99.90;;;;;;5032938;28;20041;-75
2021/09/25 01:54:43;;;;;;;17.83;9.48;;;21.70;99.90;;;;;;5014956;28;20041;-74
2021/09/25 01:57:10;;;;;;;19.33;9.30;;;21.70;99.90;;;;;;4998996;28;20077;-76
2021/09/25 01:59:38;;;;;;;16.15;9.75;;;21.70;99.90;;;;;;5011254;28;20389;-75
2021/09/25 02:02:07;;;;;;;13.25;9.38;;;21.80;99.90;;;;;;5011729;28;20152;-86
2021/09/25 02:04:45;;;;;;;13.80;8.77;;;21.80;99.90;;;;;;5013541;28;20038;-75
2021/09/25 02:07:15;;;;;;;16.95;10.30;;;21.70;99.90;;;;;;5012772;28;20096;-84
2021/09/25 02:09:43;;;;;;;12.38;9.52;;;21.70;99.90;;;;;;5011369;28;20038;-84
2021/09/25 02:12:15;;;;;;;17.90;9.60;;;21.70;99.90;;;;;;5012827;28;20052;-75
2021/09/25 02:14:42;;;;;;;12.25;9.40;;;21.70;99.90;;;;;;5012784;28;20419;-86
2021/09/25 02:17:12;;;;;;;14.00;9.77;;;21.60;99.90;;;;;;5012444;28;20038;-74
2021/09/25 02:19:40;;;;;;;11.93;8.80;;;;;;;;;;5012076;28;20077;-84
2021/09/25 02:22:09;;;;;;;12.02;9.55;;;21.60;99.90;;;;;;5012633;28;20054;-75
2021/09/25 02:24:36;;;;;;;16.67;8.75;;;21.50;99.90;;;;;;5011257;28;20501;-85
2021/09/25 02:27:05;;;;;;;18.27;9.00;;;21.50;99.90;;;;;;5012685;28;20585;-85
2021/09/25 02:29:33;;;;;;;11.98;8.75;;;21.50;99.90;;;;;;5011154;28;20113;-74
2021/09/25 02:32:01;;;;;;;10.77;8.82;;;21.50;99.90;;;;;;5013072;28;20046;-74
2021/09/25 02:34:30;;;;;;;10.00;8.65;;;21.40;99.90;;;;;;5014631;28;20117;-75
2021/09/25 02:36:57;;;;;;;14.90;8.57;;;21.50;99.90;;;;;;4998178;28;20054;-74
2021/09/25 02:39:29;;;;;;;17.25;8.80;;;21.50;99.90;;;;;;5015913;28;20117;-83
2021/09/25 02:41:56;;;;;;;15.07;8.77;;;21.50;99.90;;;;;;5016148;28;20046;-84
2021/09/25 02:44:25;;;;;;;11.82;8.70;;;21.50;99.90;;;;;;5015849;28;20790;-84
2021/09/25 02:46:52;;;;;;;11.98;7.90;;;21.50;99.90;;;;;;5014513;28;20046;-85
2021/09/25 02:49:21;;;;;;;12.05;8.02;;;21.50;99.90;;;;;;5015218;28;20046;-75
2021/09/25 02:51:49;;;;;;;12.75;8.30;;;21.50;99.90;;;;;;5014478;28;20114;-84
2021/09/25 02:54:18;;;;;;;16.63;8.48;;;21.40;99.90;;;;;;5015484;28;20041;-75
2021/09/25 02:56:46;;;;;;;13.80;9.30;;;21.40;99.90;;;;;;5015454;28;20576;-74
2021/09/25 02:59:14;;;;;;;15.52;8.38;;;21.40;99.90;;;;;;5015573;28;20037;-84
2021/09/25 03:01:45;;;;;;;13.23;8.65;;;21.40;99.90;;;;;;5014331;28;20109;-84
2021/09/25 03:04:13;;;;;;;22.67;8.88;;;21.40;99.90;;;;;;4997677;28;20038;-74
2021/09/25 03:06:41;;;;;;;11.57;7.68;;;21.40;99.90;;;;;;5013908;28;20082;-74
2021/09/25 03:09:14;;;;;;;15.20;7.93;;;21.40;99.90;;;;;;5013632;28;20060;-84
2021/09/25 03:11:42;;;;;;;15.30;7.88;;;21.40;99.90;;;;;;5015225;28;20045;-83
2021/09/25 03:14:14;;;;;;;16.60;8.00;;;21.40;99.90;;;;;;5015260;28;20046;-85
2021/09/25 03:16:44;;;;;;;13.80;7.38;;;21.40;99.90;;;;;;5015422;28;20042;-85
2021/09/25 03:19:12;;;;;;;13.07;7.68;;;21.30;99.90;;;;;;5013039;28;20049;-83
2021/09/25 03:21:39;;;;;;;14.63;8.40;;;21.30;99.90;;;;;;5015081;28;20042;-75
2021/09/25 03:24:07;;;;;;;15.05;7.50;;;21.30;99.90;;;;;;4997885;28;20056;-83
2021/09/25 03:26:34;;;;;;;20.38;7.82;;;21.20;99.90;;;;;;5013362;28;20144;-84
2021/09/25 03:29:02;;;;;;;13.10;7.90;;;21.20;99.90;;;;;;5012682;28;20053;-74
2021/09/25 03:31:33;;;;;;;13.57;8.80;;;21.20;99.90;;;;;;5014640;28;20045;-75
2021/09/25 03:34:00;;;;;;;10.77;8.70;;;21.20;99.90;;;;;;5013374;28;20549;-75
2021/09/25 03:36:30;;;;;;;15.77;8.82;;;21.20;99.90;;;;;;5013589;28;20046;-85
2021/09/25 03:38:58;;;;;;;14.27;8.90;;;21.20;99.90;;;;;;5014782;28;20042;-84
2021/09/25 03:41:26;;;;;;;14.50;9.13;;;21.10;99.90;;;;;;5014781;28;20037;-85
2021/09/25 03:43:56;;;;;;;19.05;8.80;;;21.10;99.90;;;;;;5013336;28;20038;-74
2021/09/25 03:46:24;;;;;;;14.30;8.63;;;21.10;99.90;;;;;;5013175;28;20046;-74
2021/09/25 03:48:52;;;;;;;18.50;8.68;;;21.10;99.90;;;;;;5014614;28;20120;-86
2021/09/25 03:51:22;;;;;;;12.75;8.65;;;21.10;99.90;;;;;;5014276;28;20049;-86
2021/09/25 03:53:49;;;;;;;17.35;8.52;;;21.10;99.90;;;;;;5014440;28;20048;-86
2021/09/25 03:56:20;;;;;;;13.88;8.65;;;21.00;99.90;;;;;;5014295;28;20044;-84
2021/09/25 03:58:47;;;;;;;19.67;9.05;;;21.00;99.90;;;;;;4996687;28;20038;-75
2021/09/25 04:01:18;;;;;;;13.30;8.90;;;21.10;99.90;;;;;;4996491;28;20042;-74
2021/09/25 04:03:47;;;;;;;16.40;8.70;;;21.10;99.90;;;;;;5012641;28;20589;-74
2021/09/25 04:06:15;;;;;;;13.50;8.30;;;21.00;99.90;;;;;;5013981;28;20124;-75
2021/09/25 04:08:42;;;;;;;13.40;8.57;;;21.00;99.90;;;;;;5013529;28;20136;-84
2021/09/25 04:11:11;;;;;;;15.80;8.82;;;21.00;99.90;;;;;;5013894;28;20056;-85
2021/09/25 04:13:40;;;;;;;13.77;8.60;;;21.00;99.90;;;;;;5012918;28;20057;-84
2021/09/25 04:16:09;;;;;;;11.68;7.97;;;21.00;99.90;;;;;;5012700;28;20440;-85
2021/09/25 04:18:36;;;;;;;15.45;8.50;;;21.00;99.90;;;;;;5014374;28;20120;-84
2021/09/25 04:21:06;;;;;;;17.23;8.35;;;21.00;99.90;;;;;;5014163;28;20053;-86
2021/09/25 04:23:33;;;;;;;12.73;8.52;;;21.00;99.90;;;;;;5012503;28;20501;-75
2021/09/25 04:26:01;;;;;;;11.27;7.80;;;21.00;99.90;;;;;;4996609;28;20467;-84
2021/09/25 04:28:28;;;;;;;12.02;7.65;;;21.00;99.90;;;;;;4995612;28;20429;-75
2021/09/25 04:30:55;;;;;;;16.52;8.13;;;21.00;99.90;;;;;;5013249;28;20049;-84
2021/09/25 04:33:25;;;;;;;17.27;8.45;;;20.90;99.90;;;;;;5012548;28;20049;-74
2021/09/25 04:35:57;;;;;;;14.70;7.60;;;20.90;99.90;;;;;;5012670;28;20232;-83
2021/09/25 04:38:24;;;;;;;11.80;7.80;;;20.90;99.90;;;;;;5012523;28;20042;-74
2021/09/25 04:40:55;;;;;;;14.40;8.10;;;20.90;99.90;;;;;;5013680;28;20038;-75
2021/09/25 04:43:22;;;;;;;15.68;7.70;;;21.00;99.90;;;;;;4996058;28;20038;-75
2021/09/25 04:45:50;;;;;;;13.45;7.72;;;20.90;99.90;;;;;;5012103;28;20077;-84
2021/09/25 04:48:18;;;;;;;14.35;8.13;;;20.90;99.90;;;;;;5012810;28;20050;-75
2021/09/25 04:50:47;;;;;;;11.35;8.23;;;21.00;99.90;;;;;;5011782;28;20037;-75
2021/09/25 04:53:15;;;;;;;13.95;8.95;;;20.90;99.90;;;;;;5013219;28;20486;-75
2021/09/25 04:55:42;;;;;;;18.15;8.25;;;21.00;99.90;;;;;;5011463;28;20042;-74
2021/09/25 04:58:10;;;;;;;17.92;8.18;;;21.00;99.90;;;;;;5012061;28;20045;-84
2021/09/25 05:00:38;;;;;;;14.75;7.75;;;21.10;99.90;;;;;;5011737;28;20063;-75
2021/09/25 05:03:05;;;;;;;14.05;7.60;;;21.10;99.90;;;;;;5013137;28;20038;-83
2021/09/25 05:05:34;;;;;;;16.90;8.60;;;21.20;99.90;;;;;;5012266;28;20042;-84
2021/09/25 05:08:03;;;;;;;14.35;8.13;;;21.30;99.90;;;;;;5013261;28;20046;-85
2021/09/25 05:10:32;;;;;;;18.60;9.70;;;21.40;99.90;;;;;;5013158;28;20511;-85
2021/09/25 05:13:00;;;;;;;13.95;7.38;;;21.50;99.90;;;;;;5013641;28;20045;-84
2021/09/25 05:15:28;;;;;;;14.38;7.68;;;21.50;99.90;;;;;;5012764;28;20053;-74
2021/09/25 05:17:55;;;;;;;13.60;7.55;;;21.80;99.90;;;;;;5012914;28;20045;-74
2021/09/25 05:20:22;;;;;;;14.63;7.93;;;21.90;99.90;;;;;;5012096;28;20045;-84
2021/09/25 05:22:49;;;;;;;12.10;7.13;;;22.20;99.90;;;;;;5013408;28;20417;-85
2021/09/25 05:25:18;;;;;;;18.25;8.15;;;22.40;99.90;;;;;;5011817;28;20052;-75
2021/09/25 05:27:48;;;;;;;9.40;6.78;;;22.70;99.90;;;;;;5032469;28;20049;-85
2021/09/25 05:30:15;;;;;;;14.45;7.47;;;23.00;99.90;;;;;;5032781;28;20045;-74
2021/09/25 05:32:45;;;;;;;16.60;7.82;;;23.40;99.90;;;;;;5032582;28;20087;-84
2021/09/25 05:35:21;;;;;;;17.67;8.73;;;23.80;99.70;;;;;;5032873;28;20047;-84
2021/09/25 05:37:52;;;;;;;11.70;7.38;;;24.20;97.90;;;;;;5031374;28;20096;-74
2021/09/25 05:40:24;;;;;;;14.48;7.85;;;24.60;97.60;;;;;;5031781;28;20041;-86
2021/09/25 05:42:52;;;;;;;12.63;7.00;;;24.90;95.70;;;;;;5031565;28;20044;-82
2021/09/25 05:45:25;;;;;;;14.98;7.38;;;25.30;95.10;;;;;;5033670;28;20046;-82
2021/09/25 05:47:52;;;;;;;10.85;7.03;;;25.80;94.20;;;;;;5031439;28;20069;-83
2021/09/25 05:50:20;;;;;;;12.00;6.72;;;26.30;93.20;;;;;;5030958;28;20068;-79
2021/09/25 05:52:47;;;;;;;15.30;6.97;;;26.80;92.00;;;;;;5032333;28;20645;-78
2021/09/25 05:55:24;;;;;;;15.30;6.47;;;27.10;91.00;;;;;;5015138;28;20408;-78
2021/09/25 05:58:21;;;;;;;12.48;6.63;;;27.30;90.30;;;;;;5030924;28;20117;-78
2021/09/25 06:00:49;;;;;;;18.27;7.07;;;27.40;89.90;;;;;;5015183;28;20120;-83
2021/09/25 06:03:16;;;;;;;15.57;7.25;;;27.60;90.10;;;;;;5032653;28;20038;-87
2021/09/25 06:05:44;;;;;;;16.45;6.30;;;27.80;89.10;;;;;;5032375;28;20120;-87
2021/09/25 06:08:17;;;;;;;14.25;6.65;;;28.00;88.50;;;;;;5035373;28;20048;-79
2021/09/25 06:10:44;;;;;;;11.02;6.20;;;28.30;88.00;;;;;;5035248;28;20128;-78
2021/09/25 06:13:11;;;;;;;8.98;5.60;;;28.60;86.70;;;;;;5018270;28;20051;-78
2021/09/25 06:15:39;;;;;;;13.52;5.80;;;29.20;83.00;;;;;;5035843;28;20124;-84
2021/09/25 06:18:09;;;;;;;8.98;5.65;;;29.20;82.10;;;;;;5035956;28;20044;-82
2021/09/25 06:20:36;;;;;;;11.15;6.45;;;29.40;83.80;;;;;;5035063;28;20045;-80
2021/09/25 06:23:08;;;;;;;15.95;6.70;;;29.70;80.00;;;;;;5034485;28;20370;-78
2021/09/25 06:25:40;;;;;;;16.73;6.18;;;30.10;77.60;;;;;;5034811;28;20037;-79
2021/09/25 06:28:10;;;;;;;12.48;5.78;;;30.50;76.30;;;;;;5034485;28;20413;-79
2021/09/25 06:30:41;;;;;;;11.27;6.03;;;30.50;74.80;;;;;;5035930;28;20124;-85
2021/09/25 06:33:11;;;;;;;12.23;5.38;;;30.00;76.80;;;;;;5034188;28;20504;-84
2021/09/25 06:35:39;;;;;;;13.82;5.50;;;30.30;75.90;;;;;;5035461;28;20038;-78
2021/09/25 06:38:07;;;;;;;7.82;4.90;;;29.70;77.80;;;;;;5035817;28;20404;-88
2021/09/25 06:40:37;;;;;;;11.63;5.32;;;30.60;77.00;;;;;;5034274;28;20095;-88
2021/09/25 06:43:04;;;;;;;10.95;5.25;;;31.90;72.20;;;;;;5034164;28;20037;-86
2021/09/25 06:45:33;;;;;;;11.50;5.15;;;32.20;67.10;;;;;;5017607;28;20038;-88
2021/09/25 06:48:02;;;;;;;16.55;5.85;;;32.60;67.80;;;;;;5033545;28;20139;-80
2021/09/25 06:50:29;;;;;;;11.52;5.25;;;32.60;66.10;;;;;;5033936;28;20045;-78
2021/09/25 06:52:58;;;;;;;16.48;6.25;;;32.50;64.60;;;;;;5034240;28;20124;-85
2021/09/25 06:55:26;;;;;;;11.48;5.10;;;32.00;66.60;;;;;;5034915;28;20121;-85
2021/09/25 06:57:55;;;;;;;9.93;5.55;;;32.70;65.50;;;;;;5035561;28;20059;-85
2021/09/25 07:00:23;;;;;;;10.00;5.75;;;33.40;62.20;;;;;;5035134;28;20128;-79
2021/09/25 07:02:50;;;;;;;13.77;5.70;;;33.60;61.90;;;;;;5034878;28;20099;-88
2021/09/25 07:05:19;;;;;;;14.80;5.38;;;34.20;59.30;;;;;;5034207;28;20037;-88
2021/09/25 07:07:47;;;;;;;14.43;6.32;;;33.70;51.20;;;;;;5035360;28;20048;-79
2021/09/25 07:10:15;;;;;;;12.05;5.93;;;33.40;51.50;;;;;;5034026;28;20079;-78
2021/09/25 07:12:44;;;;;;;9.30;5.45;;;33.40;51.20;;;;;;5033382;28;20477;-78
2021/09/25 07:15:13;;;;;;;8.10;5.38;;;33.90;49.60;;;;;;5033700;28;20084;-80
2021/09/25 07:17:43;;;;;;;12.48;5.40;;;34.50;47.60;;;;;;5016342;28;20080;-84
2021/09/25 07:20:11;;;;;;;23.20;6.55;;;35.10;45.80;;;;;;5028698;28;20103;-88
2021/09/25 07:22:39;;;;;;;11.85;5.07;;;34.30;45.60;;;;;;5014480;28;20046;-81
2021/09/25 07:25:10;;;;;;;12.05;4.90;;;34.70;45.90;;;;;;4996396;28;20081;-88
2021/09/25 07:27:37;;;;;;;9.45;4.72;;;35.30;44.80;;;;;;5013455;28;20061;-85
2021/09/25 07:30:09;;;;;;;10.13;5.25;;;35.70;43.60;;;;;;5013351;28;20552;-80
2021/09/25 07:32:36;;;;;;;9.20;5.00;;;35.50;43.50;;;;;;5012718;28;20135;-80
2021/09/25 07:35:03;;;;;;;9.23;5.35;;;35.90;43.00;;;;;;4981273;28;20046;-89
2021/09/25 07:37:31;;;;;;;12.73;6.10;;;35.80;42.00;;;;;;5015084;28;20049;-85
2021/09/25 07:40:07;;;;;;;8.10;5.35;;;36.40;40.90;;;;;;4996982;28;20198;-79
2021/09/25 07:43:00;;;;;;;;;;;36.10;40.80;;;;;;5013736;28;20363;-79
2021/09/25 07:45:28;;;;;;;8.77;5.03;;;35.60;41.80;;;;;;5013518;28;20300;-80
2021/09/25 07:47:58;;;;;;;12.10;5.75;;;36.20;41.40;;;;;;5033854;28;20065;-79
2021/09/25 07:50:27;;;;;;;9.95;5.72;;;36.30;41.10;;;;;;5032876;28;20041;-85
2021/09/25 07:52:56;;;;;;;9.68;4.97;;;35.60;41.00;;;;;;5034288;28;20038;-86
2021/09/25 07:55:26;;;;;;;10.10;5.00;;;36.00;41.50;;;;;;5027157;28;20037;-88
2021/09/25 07:57:56;;;;;;;13.30;5.68;;;36.60;40.10;;;;;;5032651;28;20037;-80
2021/09/25 08:00:25;;;;;;;14.52;5.70;;;37.00;39.40;;;;;;5030629;28;20042;-87
2021/09/25 08:02:54;;;;;;;13.90;5.05;;;35.80;40.90;;;;;;5032562;28;20049;-88
2021/09/25 08:05:23;;;;;;;9.20;5.10;;;35.10;42.40;;;;;;5030726;28;20125;-80
2021/09/25 08:07:50;;;;;;;12.10;5.70;;;35.30;42.40;;;;;;5026703;28;20049;-81
2021/09/25 08:10:17;;;;;;;12.77;5.95;;;34.50;43.60;;;;;;5032227;28;20069;-89
2021/09/25 08:12:45;;;;;;;18.77;9.18;;;33.70;46.10;;;;;;5031917;28;20119;-88
2021/09/25 08:15:17;;;;;;;10.30;5.63;;;32.80;49.40;;;;;;5024833;28;20077;-84
2021/09/25 08:17:50;;;;;;;;;;;32.50;50.30;;;;;;5011697;28;20061;-87
2021/09/25 08:20:20;;;;;;;10.00;5.50;;;31.80;52.90;;;;;;5016822;28;19925;-87
2021/09/25 08:22:58;;;;;;;13.65;6.38;;;31.30;55.60;;;;;;5030119;28;20049;-88
2021/09/25 08:25:25;;;;;;;11.43;5.80;;;31.00;56.40;;;;;;5028986;28;20135;-78
2021/09/25 08:27:56;;;;;;;12.70;6.05;;;30.20;61.80;;;;;;5030837;28;20042;-89
2021/09/25 08:30:38;;;;;;;15.27;6.47;;;30.30;62.70;;;;;;5030275;28;20045;-89
2021/09/25 08:33:10;;;;;;;13.70;5.80;;;31.10;58.90;;;;;;5067125;22;20595;-89
2021/09/25 08:35:43;;;;;;;17.92;6.93;;;32.00;55.70;;;;;;5071476;28;20375;-79
2021/09/25 08:38:13;;;;;;;15.27;6.30;;;32.80;52.10;;;;;;5071779;28;20044;-80
2021/09/25 08:40:41;;;;;;;11.50;6.28;;;33.00;51.10;;;;;;5071897;28;20511;-80
2021/09/25 08:43:08;;;;;;;11.68;6.00;;;32.80;51.80;;;;;;5072415;28;20124;-88
2021/09/25 08:45:42;;;;;;;15.20;5.72;;;31.90;54.90;;;;;;5071765;28;20040;-82
2021/09/25 08:48:13;;;;;;;12.88;6.32;;;32.10;55.20;;;;;;5071996;28;20198;-77
2021/09/25 08:50:42;;;;;;;17.33;6.95;;;31.60;57.20;;;;;;5073265;28;20045;-75
2021/09/25 08:53:09;;;;;;;11.93;6.93;;;31.40;59.30;;;;;;5071613;28;20052;-79
2021/09/25 08:55:36;;;;;;;14.73;7.22;;;32.40;56.40;;;;;;5071069;28;20531;-81
2021/09/25 08:58:03;;;;;;;16.60;7.18;;;32.10;54.30;;;;;;5071637;28;20049;-74
2021/09/25 09:00:42;;;;;;;13.07;7.35;;;33.30;50.60;;;;;;5072840;28;20052;-76
2021/09/25 09:03:40;;;;;;;18.70;7.60;;;31.70;54.30;;;;;;5071365;28;20094;-76
2021/09/25 09:06:21;;;;;;;20.67;8.00;;;30.30;59.80;;;;;;5072553;28;20048;-76
2021/09/25 09:08:53;;;;;;;13.95;7.22;;;29.30;68.20;;;;;;5073025;28;20032;-76
2021/09/25 09:11:26;;;;;;;15.50;7.30;;;29.20;68.70;;;;;;5072867;28;20075;-75
2021/09/25 09:13:58;;;;;;;18.02;7.88;;;28.80;71.20;;;;;;5072231;28;20449;-75
2021/09/25 09:16:25;;;;;;;21.33;7.85;;;28.70;74.30;;;;;;5054763;28;20063;-76
2021/09/25 09:18:54;;;;;;;14.90;8.15;;;28.60;73.00;;;;;;5072498;28;20037;-75
2021/09/25 09:21:34;;;;;;;17.27;8.48;;;28.90;70.70;;;;;;5072239;28;20476;-77
2021/09/25 09:24:09;;;;;;;21.67;7.78;;;28.70;71.60;;;;;;5072327;28;20037;-78
2021/09/25 09:26:39;;;;;;;16.75;7.68;;;28.50;74.80;;;;;;5054953;28;20120;-76
2021/09/25 09:29:09;;;;;;;17.23;8.07;;;28.80;71.50;;;;;;5065145;28;20491;-77
2021/09/25 09:31:38;;;;;;;16.27;7.57;;;28.60;76.90;;;;;;5052367;28;20116;-75
2021/09/25 09:34:10;;;;;;;19.45;7.95;;;28.70;77.50;;;;;;5051427;28;20181;-77
2021/09/25 09:36:40;;;;;;;12.38;7.43;;;28.70;72.00;;;;;;5052107;28;20383;-77
2021/09/25 09:39:21;;;;;;;21.23;7.88;;;29.20;73.20;;;;;;5051573;28;20392;-77
2021/09/25 09:41:59;;;;;;;18.15;8.35;;;28.90;75.50;;;;;;5055002;28;20048;-75
2021/09/25 09:44:30;;;;;;;13.00;7.90;;;29.30;71.80;;;;;;5056370;28;20041;-76
2021/09/25 09:47:00;;;;;;;15.00;7.38;;;28.60;74.50;;;;;;5058229;28;20048;-76
2021/09/25 09:49:40;;;;;;;13.88;7.60;;;28.90;76.70;;;;;;5065290;28;20043;-77
2021/09/25 09:52:08;;;;;;;14.52;7.68;;;;;;;;;;5056684;28;20072;-75
2021/09/25 09:54:41;;;;;;;19.30;7.28;;;;;;;;;;5056017;28;20555;-78
2021/09/25 09:57:11;;;;;;;13.68;7.72;;;28.10;79.70;;;;;;5061127;28;20040;-76
2021/09/25 09:59:39;;;;;;;13.20;7.32;;;;;;;;;;5075481;28;20391;-77
2021/09/25 10:02:08;;;;;;;17.65;7.22;;;;;;;;;;5076499;28;20043;-77
2021/09/25 10:04:37;;;;;;;12.50;7.80;;;;;;;;;;5076604;28;20380;-77
2021/09/25 10:07:05;;;;;;;15.15;7.45;;;;;;;;;;5076293;28;20072;-78
2021/09/25 10:09:33;;;;;;;15.45;7.03;;;;;;;;;;5075215;28;20399;-76
2021/09/25 10:12:02;;;;;;;18.73;7.53;;;;;;;;;;5076012;28;20488;-78
2021/09/25 10:14:33;;;;;;;13.40;7.57;;;;;;;;;;5075998;28;20052;-79
2021/09/25 10:17:03;;;;;;;13.18;7.63;;;;;;;;;;5074751;28;20040;-75
2021/09/25 10:19:34;;;;;;;16.00;8.00;;;;;;;;;;5074599;28;20136;-78
2021/09/25 10:22:05;;;;;;;13.05;7.53;;;;;;;;;;5075891;28;20080;-77
2021/09/25 10:24:45;;;;;;;14.10;7.68;;;;;;;;;;5074553;28;20139;-80
2021/09/25 10:27:14;;;;;;;11.32;6.47;;;29.10;72.80;;;;;;5074802;28;20047;-75
2021/09/25 10:29:45;;;;;;;12.20;7.57;;;30.40;67.30;;;;;;5074222;28;20045;-80
2021/09/25 10:32:19;;;;;;;14.45;7.22;;;;;;;;;;5068950;28;20123;-75
2021/09/25 10:34:57;;;;;;;15.93;7.53;;;;;;;;;;5071847;28;20136;-77
2021/09/25 10:37:24;;;;;;;12.57;7.28;;;;;;;;;;5075020;28;20040;-77
2021/09/25 10:39:57;;;;;;;16.23;6.70;;;29.00;73.00;;;;;;5075105;28;20475;-76
2021/09/25 10:42:43;;;;;;;10.90;6.45;;;29.30;76.00;;;;;;5075728;28;20042;-77
2021/09/25 10:45:31;;;;;;;10.93;6.07;;;29.00;76.10;;;;;;5075527;28;20032;-76
2021/09/25 10:48:24;;;;;;;12.88;6.00;;;29.50;74.90;;;;;;5075408;28;20039;-77
2021/09/25 10:51:00;;;;;;;14.13;6.30;;;29.80;72.40;;;;;;5075323;28;20499;-77
2021/09/25 10:53:38;;;;;;;15.85;6.57;;;30.00;69.70;;;;;;5074364;28;20397;-77
2021/09/25 10:56:18;;;;;;;11.32;6.00;;;29.80;68.80;;;;;;5073713;28;20127;-75
2021/09/25 10:59:04;;;;;;;8.88;5.88;;;29.20;76.10;;;;;;5075382;28;20431;-75
2021/09/25 11:01:38;;;;;;;12.93;6.45;;;30.40;69.30;;;;;;5075172;28;20127;-78
2021/09/25 11:04:12;;;;;;;12.85;5.43;;;29.80;71.60;;;;;;5075013;28;20140;-76
2021/09/25 11:06:52;;;;;;;11.85;6.38;;;29.70;72.50;;;;;;5075192;28;20044;-76
2021/09/25 11:09:33;;;;;;;15.48;6.47;;;;;;;;;;5074523;28;20114;-75
2021/09/25 11:12:19;;;;;;;12.07;5.88;;;;;;;;;;5073861;28;20048;-76
2021/09/25 11:14:56;;;;;;;13.20;6.60;;;;;;;;;;5074766;28;20080;-76
2021/09/25 11:17:28;;;;;;;16.63;6.25;;;;;;;;;;5073753;28;20064;-77
2021/09/25 11:19:56;;;;;;;19.00;7.20;;;;;;;;;;5075053;28;20047;-77
2021/09/25 11:22:29;;;;;;;17.17;6.28;;;;;;;;;;5073589;28;20483;-76
2021/09/25 11:25:13;;;;;;;13.60;6.32;;;;;;;;;;5073538;28;20503;-76
2021/09/25 11:27:50;;;;;;;13.52;6.45;;;;;;;;;;5073458;28;20054;-75
2021/09/25 11:30:24;;;;;;;11.57;5.70;;;;;;;;;;5074300;28;20124;-76
2021/09/25 11:32:59;;;;;;;12.88;6.07;;;29.20;75.80;;;;;;5074709;28;20135;-76
2021/09/25 11:35:49;;;;;;;17.73;6.20;;;27.90;83.80;;;;;;5073021;28;20041;-74
2021/09/25 11:38:52;;;;;;;10.38;5.78;;;;;;;;;;5073375;28;20049;-77
2021/09/25 11:41:19;;;;;;;13.30;6.22;;;;;;;;;;5073295;28;20043;-77
2021/09/25 11:43:59;;;;;;;11.98;6.00;;;;;;;;;;5074673;28;20551;-76
2021/09/25 11:46:26;;;;;;;11.48;6.00;;;;;;;;;;5073241;28;20048;-76
2021/09/25 11:48:57;;;;;;;13.20;6.00;;;;;;;;;;5074016;28;20041;-77
2021/09/25 11:51:25;;;;;;;10.27;5.53;;;;;;;;;;5072916;28;20041;-76
2021/09/25 11:53:53;;;;;;;11.45;5.55;;;;;;;;;;5072975;28;20048;-75
2021/09/25 11:56:34;;;;;;;11.75;5.60;;;27.20;91.90;;;;;;5056666;28;20058;-75
2021/09/25 11:59:02;;;;;;;12.18;5.32;;;30.10;74.20;;;;;;5073190;28;20049;-75
2021/09/25 12:01:39;;;;;;;12.27;5.47;;;30.00;73.10;;;;;;5072992;28;20044;-76
2021/09/25 12:04:07;;;;;;;9.45;5.63;;;30.40;69.00;;;;;;5073749;28;20445;-76
2021/09/25 12:06:35;;;;;;;9.68;5.70;;;30.40;67.80;;;;;;5072811;28;20484;-77
2021/09/25 12:09:06;;;;;;;11.50;5.70;;;29.90;69.80;;;;;;5073659;28;20040;-75
2021/09/25 12:11:33;;;;;;;17.63;6.18;;;;;;;;;;5072625;28;20033;-75
2021/09/25 12:14:03;;;;;;;12.23;5.90;;;;;;;;;;5072598;28;20043;-76
2021/09/25 12:16:30;;;;;;;13.98;6.22;;;;;;;;;;5072454;28;20045;-77
2021/09/25 12:18:58;;;;;;;12.15;6.25;;;;;;;;;;5072677;28;20036;-77
2021/09/25 12:21:28;;;;;;;15.13;6.95;;;;;;;;;;5073489;28;20491;-76
2021/09/25 12:24:08;;;;;;;14.82;6.55;;;;;;;;;;5072503;28;20067;-75
2021/09/25 12:26:44;;;;;;;11.88;6.80;;;;;;;;;;5073830;28;20119;-75
2021/09/25 12:29:21;;;;;;;19.83;7.47;;;;;;;;;;5071887;28;20123;-75
2021/09/25 12:31:58;;;;;;;15.77;7.43;;;;;;;;;;5073267;28;20487;-75
2021/09/25 12:34:31;;;;;;;13.65;6.55;;;;;;;;;;5055658;28;20040;-75
2021/09/25 12:37:02;;;;;;;16.25;6.40;;;;;;;;;;5072239;28;20147;-76
2021/09/25 12:39:32;;;;;;;13.40;6.70;;;;;;;;;;5071984;28;20040;-75
2021/09/25 12:42:06;;;;;;;11.95;6.20;;;;;;;;;;5072822;28;20127;-75
2021/09/25 12:44:39;;;;;;;10.57;6.03;;;;;;;;;;5073036;28;20551;-76
2021/09/25 12:47:09;;;;;;;11.00;5.38;;;;;;;;;;5073671;28;20047;-76
2021/09/25 12:49:38;;;;;;;13.25;5.68;;;;;;;;;;5071884;28;20041;-77
2021/09/25 12:52:08;;;;;;;20.10;5.82;;;;;;;;;;5072993;28;20041;-75
2021/09/25 12:54:41;;;;;;;15.27;6.05;;;;;;;;;;5071686;28;20390;-76
2021/09/25 12:57:30;;;;;;;11.85;5.43;;;;;;;;;;5073397;28;20502;-77
2021/09/25 13:00:00;;;;;;;12.77;6.00;;;;;;;;;;5072883;28;20093;-76
2021/09/25 13:02:33;;;;;;;11.35;6.47;;;;;;;;;;5073411;28;20040;-76
2021/09/25 13:05:02;;;;;;;14.63;6.43;;;;;;;;;;5073020;28;20037;-76
2021/09/25 13:07:34;;;;;;;15.75;6.15;;;;;;;;;;5072838;28;20044;-78
2021/09/25 13:10:03;;;;;;;13.80;6.60;;;;;;;;;;5072487;28;20045;-74
2021/09/25 13:12:40;;;;;;;13.52;6.50;;;;;;;;;;5071428;28;20043;-77
2021/09/25 13:15:19;;;;;;;15.60;7.22;;;;;;;;;;5073154;28;20045;-77